Time;durP1;ratioP1;P1;durP2;ratioP2;P2;SDS_P1;SDS_P2;PMS_P1;PMS_P2;Temp;Humidity;BMP_temperature;BMP_pressure;BME280_temperature;BME280_humidity;BME280_pressure;Samples;Min_cycle;Max_cycle;Signal;HPM_P1;HPM_P2
2023/10/10 00:00:27;;;;;;;3.10;2.63;;;22.60;58.80;;;;;;5032632;28;20422;-66
2023/10/10 00:02:54;;;;;;;4.17;3.07;;;22.70;58.90;;;;;;5032741;28;20945;-65
2023/10/10 00:05:32;;;;;;;3.30;3.00;;;22.70;58.90;;;;;;5032489;28;20473;-65
2023/10/10 00:07:59;;;;;;;3.63;2.97;;;22.70;58.90;;;;;;5032650;28;20399;-66
2023/10/10 00:10:27;;;;;;;4.50;3.80;;;22.70;58.90;;;;;;5032528;28;20422;-65
2023/10/10 00:12:53;;;;;;;3.70;3.30;;;22.60;58.80;;;;;;5032487;28;20403;-64
2023/10/10 00:15:28;;;;;;;4.37;3.47;;;22.60;58.80;;;;;;5032389;28;20497;-64
2023/10/10 00:17:59;;;;;;;6.43;3.87;;;22.70;58.90;;;;;;5032347;28;20406;-66
2023/10/10 00:20:29;;;;;;;4.57;3.20;;;22.70;58.90;;;;;;5032343;28;20401;-66
2023/10/10 00:22:58;;;;;;;3.50;3.20;;;22.70;58.90;;;;;;5032310;28;20421;-66
2023/10/10 00:25:30;;;;;;;4.33;3.30;;;22.70;58.90;;;;;;5032119;28;20461;-65
2023/10/10 00:28:00;;;;;;;3.47;3.10;;;22.60;58.80;;;;;;5032570;28;20510;-66
2023/10/10 00:30:34;;;;;;;4.80;3.50;;;22.70;58.80;;;;;;5032217;28;20418;-66
2023/10/10 00:33:04;;;;;;;4.23;2.80;;;22.70;58.80;;;;;;5032004;28;20776;-65
2023/10/10 00:35:33;;;;;;;3.33;2.87;;;22.70;58.90;;;;;;5031657;28;20445;-66
2023/10/10 00:37:59;;;;;;;4.43;2.80;;;22.70;58.80;;;;;;5031039;28;20410;-66
2023/10/10 00:40:31;;;;;;;3.07;2.77;;;22.60;58.80;;;;;;5030466;28;20451;-66
2023/10/10 00:43:04;;;;;;;2.93;2.70;;;22.70;58.80;;;;;;5030769;28;20395;-66
2023/10/10 00:45:33;;;;;;;4.63;3.10;;;22.70;58.90;;;;;;5012409;28;20416;-65
2023/10/10 00:48:00;;;;;;;3.40;3.00;;;22.70;58.80;;;;;;5030989;28;20442;-66
2023/10/10 00:50:27;;;;;;;4.20;3.43;;;22.70;58.90;;;;;;5030863;28;20457;-66
2023/10/10 00:52:53;;;;;;;3.20;2.80;;;22.60;58.80;;;;;;5030908;28;20924;-66
2023/10/10 00:55:24;;;;;;;4.23;3.17;;;22.70;58.80;;;;;;5030775;28;20435;-66
2023/10/10 00:57:53;;;;;;;3.87;3.20;;;22.70;58.80;;;;;;5030763;28;20473;-65
2023/10/10 01:00:20;;;;;;;3.73;3.33;;;22.70;58.80;;;;;;5030746;28;20461;-65
2023/10/10 01:02:46;;;;;;;3.90;3.47;;;22.70;58.80;;;;;;5030944;28;20410;-65
2023/10/10 01:05:12;;;;;;;3.00;2.53;;;22.70;58.80;;;;;;5030607;28;20441;-66
2023/10/10 01:07:39;;;;;;;4.40;3.23;;;22.70;58.80;;;;;;5030627;28;20422;-65
2023/10/10 01:10:12;;;;;;;3.73;3.33;;;22.70;58.80;;;;;;5030858;28;20845;-65
2023/10/10 01:12:40;;;;;;;4.23;3.10;;;22.70;58.80;;;;;;5030624;28;20391;-66
2023/10/10 01:15:48;;;;;;;3.40;2.70;;;22.70;58.90;;;;;;5013063;28;20541;-65
2023/10/10 01:18:03;;;;;;;3.40;3.07;;;22.70;58.80;;;;;;5026348;28;20466;-66
2023/10/10 01:20:36;;;;;;;3.40;2.57;;;22.70;58.80;;;;;;5012654;28;20425;-66
2023/10/10 01:23:02;;;;;;;3.57;2.83;;;22.60;58.80;;;;;;5030246;28;20390;-66
2023/10/10 01:28:02;;;;;;;4.00;3.33;;;22.70;59.40;;;;;;5030677;28;20403;-66
2023/10/10 01:30:44;;;;;;;3.83;3.43;;;22.70;58.90;;;;;;5030679;28;20518;-66
2023/10/10 01:33:22;;;;;;;3.33;2.83;;;22.70;58.80;;;;;;5030187;28;20430;-66
2023/10/10 01:35:58;;;;;;;3.90;3.33;;;22.70;58.80;;;;;;4987949;28;1224628;-66
2023/10/10 01:38:31;;;;;;;4.17;3.17;;;22.60;58.80;;;;;;5030861;28;20202;-65
2023/10/10 01:40:58;;;;;;;4.47;3.80;;;22.60;58.80;;;;;;5031053;28;20425;-65
2023/10/10 01:43:24;;;;;;;3.43;2.97;;;22.60;58.80;;;;;;5030841;28;20437;-66
2023/10/10 01:46:08;;;;;;;3.50;2.90;;;22.70;58.90;;;;;;5030800;28;20422;-66
2023/10/10 01:48:43;;;;;;;3.17;2.70;;;22.70;58.80;;;;;;5030960;28;20409;-65
2023/10/10 01:51:09;;;;;;;3.40;3.10;;;22.60;58.80;;;;;;5030863;28;20406;-66
2023/10/10 01:53:40;;;;;;;3.30;2.97;;;22.70;58.80;;;;;;5012845;28;20504;-66
2023/10/10 01:56:07;;;;;;;3.17;2.87;;;22.70;58.90;;;;;;5030887;28;20415;-66
2023/10/10 01:58:36;;;;;;;3.50;2.63;;;22.60;58.80;;;;;;5030009;28;20802;-65
2023/10/10 02:01:24;;;;;;;3.93;2.73;;;22.60;58.80;;;;;;5030719;28;20763;-66
2023/10/10 02:03:51;;;;;;;3.10;2.77;;;22.70;58.80;;;;;;5012814;28;20786;-66
2023/10/10 02:06:28;;;;;;;3.27;2.77;;;22.60;58.80;;;;;;5030666;28;20879;-66
2023/10/10 02:09:43;;;;;;;2.97;2.77;;;22.60;58.80;;;;;;5030656;28;20406;-65
2023/10/10 02:11:50;;;;;;;4.07;3.20;;;22.70;58.80;;;;;;5013284;28;20953;-66
2023/10/10 02:14:18;;;;;;;3.00;2.70;;;22.70;58.80;;;;;;5030559;28;20434;-65
2023/10/10 02:16:47;;;;;;;3.67;2.70;;;22.60;58.80;;;;;;5030475;28;20494;-66
2023/10/10 02:19:24;;;;;;;4.07;3.37;;;22.70;58.80;;;;;;5030434;28;20450;-65
2023/10/10 02:21:51;;;;;;;3.53;3.23;;;22.70;58.90;;;;;;5030542;28;20391;-66
2023/10/10 02:24:38;;;;;;;3.40;3.10;;;22.60;58.80;;;;;;5030421;28;20842;-65
2023/10/10 02:27:06;;;;;;;3.37;2.93;;;22.70;58.80;;;;;;5015925;28;20833;-65
2023/10/10 02:32:12;;;;;;;3.30;2.60;;;22.60;58.80;;;;;;5030410;28;20407;-65
2023/10/10 02:34:42;;;;;;;3.37;3.07;;;22.70;58.80;;;;;;5030272;28;20461;-65
2023/10/10 02:43:10;;;;;;;3.10;2.37;;;22.70;58.80;;;;;;5017393;28;20936;-65
2023/10/10 02:45:36;;;;;;;3.20;2.90;;;22.60;58.80;;;;;;5030443;28;20911;-66
2023/10/10 02:48:07;;;;;;;3.90;3.13;;;22.60;58.80;;;;;;5030475;28;20497;-66
2023/10/10 02:50:40;;;;;;;2.83;2.57;;;22.70;58.90;;;;;;5030413;28;20260;-66
2023/10/10 02:53:09;;;;;;;3.90;3.30;;;22.70;58.80;;;;;;5030230;28;20395;-66
2023/10/10 02:55:41;;;;;;;3.13;2.83;;;22.60;58.80;;;;;;5030232;28;20485;-66
2023/10/10 02:58:20;;;;;;;2.47;2.27;;;22.70;58.90;;;;;;5030172;28;20461;-65
2023/10/10 03:00:49;;;;;;;2.93;2.57;;;22.60;58.80;;;;;;5030203;28;20529;-66
2023/10/10 03:03:18;;;;;;;2.50;2.30;;;22.60;58.80;;;;;;5030111;28;20460;-66
2023/10/10 03:05:50;;;;;;;3.30;2.40;;;22.70;58.80;;;;;;5030196;28;20406;-66
2023/10/10 03:08:26;;;;;;;3.03;2.40;;;22.60;58.70;;;;;;5030194;28;20402;-66
2023/10/10 03:10:55;;;;;;;3.30;2.70;;;22.70;58.80;;;;;;5033704;28;20401;-66
2023/10/10 03:24:29;;;;;;;4.73;3.20;;;22.60;58.80;;;;;;5033591;28;20426;-66
2023/10/10 03:27:37;;;;;;;2.90;2.60;;;22.60;59.30;;;;;;5033379;28;20474;-65
2023/10/10 03:29:47;;;;;;;3.17;2.87;;;22.60;58.80;;;;;;5033065;28;20805;-65
2023/10/10 03:32:33;;;;;;;3.30;2.73;;;22.60;58.80;;;;;;5033530;28;20407;-66
2023/10/10 03:35:05;;;;;;;2.60;2.40;;;22.60;59.30;;;;;;5033126;28;20225;-66
2023/10/10 03:37:42;;;;;;;3.40;3.10;;;22.60;58.80;;;;;;5033233;28;20440;-65
2023/10/10 03:40:22;;;;;;;2.73;2.43;;;22.70;58.90;;;;;;5033160;28;20529;-65
2023/10/10 05:24:23;;;;;;;3.53;2.73;;;22.60;58.90;;;;;;5031040;28;20433;-66
2023/10/10 05:26:49;;;;;;;8.03;2.90;;;22.60;58.90;;;;;;5031128;28;20418;-67
2023/10/10 05:29:19;;;;;;;2.87;2.57;;;22.60;58.90;;;;;;5031096;28;20421;-65
2023/10/10 05:31:51;;;;;;;3.17;2.43;;;22.60;58.80;;;;;;5012959;28;20509;-65
2023/10/10 05:34:18;;;;;;;4.90;3.00;;;22.70;58.90;;;;;;5030909;28;20798;-65
2023/10/10 05:36:46;;;;;;;3.17;2.43;;;22.70;58.90;;;;;;5030810;28;20441;-65
2023/10/10 05:39:17;;;;;;;3.40;2.83;;;22.70;58.90;;;;;;5030842;28;20485;-65
2023/10/10 05:41:47;;;;;;;4.53;2.83;;;22.70;58.90;;;;;;5030933;28;20426;-66
2023/10/10 05:44:15;;;;;;;2.90;2.50;;;22.70;58.80;;;;;;5030750;28;20422;-66
2023/10/10 05:46:40;;;;;;;3.00;2.70;;;22.60;58.80;;;;;;5030766;28;20447;-65
2023/10/10 05:49:06;;;;;;;3.00;2.50;;;22.70;58.90;;;;;;5030668;28;21000;-67
2023/10/10 05:51:31;;;;;;;3.13;2.60;;;22.60;58.70;;;;;;5031060;28;20302;-66
2023/10/10 05:53:57;;;;;;;3.20;2.60;;;22.60;58.70;;;;;;5030680;28;20202;-66
2023/10/10 05:56:23;;;;;;;3.23;2.47;;;22.70;58.80;;;;;;5030660;28;20551;-65
2023/10/10 05:58:49;;;;;;;2.63;2.43;;;22.60;58.70;;;;;;5030551;28;20553;-65
2023/10/10 06:01:15;;;;;;;3.80;2.90;;;22.70;58.80;;;;;;5012821;28;20444;-66
2023/10/10 06:03:44;;;;;;;2.87;2.57;;;22.70;58.80;;;;;;5030552;28;20699;-66
2023/10/10 06:06:13;;;;;;;3.90;2.93;;;22.70;58.80;;;;;;5030569;28;20727;-67
2023/10/10 06:08:44;;;;;;;3.77;2.73;;;22.70;58.80;;;;;;5030584;28;20414;-66
2023/10/10 06:11:13;;;;;;;2.70;2.33;;;22.70;58.80;;;;;;5030620;28;20457;-66
2023/10/10 06:13:40;;;;;;;3.40;2.70;;;22.70;58.80;;;;;;5030442;28;20853;-65
2023/10/10 06:16:06;;;;;;;4.40;3.30;;;22.70;58.80;;;;;;5012823;28;20438;-67
2023/10/10 06:18:32;;;;;;;2.97;2.67;;;22.70;58.80;;;;;;5030330;28;20787;-66
2023/10/10 06:21:02;;;;;;;6.60;2.90;;;22.70;58.80;;;;;;5030487;28;20445;-67
2023/10/10 06:23:32;;;;;;;2.97;2.67;;;22.70;58.80;;;;;;5030441;28;20253;-65
2023/10/10 06:25:58;;;;;;;3.37;2.50;;;22.70;58.80;;;;;;5030469;28;20417;-66
2023/10/10 06:28:26;;;;;;;2.70;2.47;;;22.70;58.80;;;;;;5030364;28;20856;-66
2023/10/10 06:30:55;;;;;;;3.57;2.70;;;22.70;58.80;;;;;;5030369;28;20418;-67
2023/10/10 06:33:27;;;;;;;3.80;3.40;;;22.70;58.80;;;;;;5030280;28;20434;-65
2023/10/10 06:38:59;;;;;;;3.03;2.60;;;22.70;58.80;;;;;;5030187;28;20442;-66
2023/10/10 06:41:27;;;;;;;4.60;2.67;;;22.60;58.70;;;;;;5030380;28;21072;-66
2023/10/10 06:43:53;;;;;;;3.20;2.90;;;22.60;58.70;;;;;;5030873;28;20434;-67
2023/10/10 06:46:18;;;;;;;3.50;2.57;;;22.70;58.80;;;;;;5034056;28;20456;-66
2023/10/10 06:48:47;;;;;;;3.20;2.50;;;22.70;58.80;;;;;;5034140;28;20214;-66
2023/10/10 06:51:15;;;;;;;3.53;2.80;;;22.70;58.80;;;;;;5034015;28;20168;-66
2023/10/10 06:53:44;;;;;;;3.30;3.00;;;22.70;58.80;;;;;;5033937;28;20449;-66
2023/10/10 06:56:17;;;;;;;3.40;2.70;;;22.70;58.80;;;;;;5033873;28;20969;-65
2023/10/10 06:58:46;;;;;;;3.50;3.20;;;22.70;58.80;;;;;;5033758;28;20441;-66
2023/10/10 07:01:18;;;;;;;4.50;2.97;;;22.70;58.80;;;;;;5033817;28;20856;-66
2023/10/10 07:03:46;;;;;;;2.80;2.60;;;22.70;58.80;;;;;;5033824;28;20947;-66
2023/10/10 07:06:12;;;;;;;4.90;3.53;;;22.70;58.80;;;;;;5033751;28;20406;-66
2023/10/10 07:08:38;;;;;;;3.60;2.83;;;22.70;58.80;;;;;;5033592;28;20473;-66
2023/10/10 07:11:04;;;;;;;2.97;2.63;;;22.70;58.80;;;;;;5033656;28;20414;-66
2023/10/10 07:13:30;;;;;;;4.30;3.70;;;22.70;58.80;;;;;;5033517;28;20200;-66
2023/10/10 07:15:59;;;;;;;3.13;2.67;;;22.70;58.80;;;;;;5033449;28;20410;-66
2023/10/10 07:18:25;;;;;;;3.67;3.20;;;22.70;58.80;;;;;;5033426;28;20992;-66
2023/10/10 07:21:08;;;;;;;5.87;2.90;;;22.70;58.80;;;;;;5033419;28;20406;-67
2023/10/10 07:24:02;;;;;;;4.83;2.57;;;22.70;59.30;;;;;;5033623;28;20426;-66
2023/10/10 07:26:28;;;;;;;3.80;3.40;;;22.70;58.80;;;;;;5032639;28;20422;-66
2023/10/10 07:28:54;;;;;;;3.43;2.80;;;22.70;58.80;;;;;;5033261;28;20453;-65
2023/10/10 07:31:22;;;;;;;4.47;3.20;;;22.70;58.80;;;;;;5033158;28;20413;-66
2023/10/10 07:34:04;;;;;;;2.93;2.57;;;22.70;58.80;;;;;;5033127;28;20505;-66
2023/10/10 07:36:33;;;;;;;3.10;2.77;;;22.70;58.80;;;;;;5033160;28;20934;-66
2023/10/10 07:41:47;;;;;;;3.50;3.20;;;22.70;58.80;;;;;;5033330;28;20385;-65
2023/10/10 07:44:16;;;;;;;4.63;3.10;;;22.70;58.80;;;;;;5032888;28;20430;-66
2023/10/10 07:47:10;;;;;;;3.43;3.07;;;22.70;58.80;;;;;;5033207;28;20422;-66
2023/10/10 07:49:28;;;;;;;3.10;2.63;;;22.70;58.80;;;;;;5032752;28;20522;-66
2023/10/10 07:51:54;;;;;;;2.83;2.60;;;22.70;58.80;;;;;;5014983;28;20882;-66
2023/10/10 07:54:30;;;;;;;4.30;3.10;;;22.70;58.80;;;;;;5032569;28;20695;-66
2023/10/10 07:56:55;;;;;;;3.17;2.87;;;22.70;58.80;;;;;;5032897;28;20156;-67
2023/10/10 07:59:21;;;;;;;4.40;3.60;;;22.70;58.70;;;;;;5014829;28;20457;-65
2023/10/10 08:01:49;;;;;;;4.40;3.70;;;22.70;58.70;;;;;;5032743;28;20206;-66
2023/10/10 08:04:15;;;;;;;4.50;3.80;;;22.70;58.70;;;;;;5032570;28;20476;-66
2023/10/10 08:06:50;;;;;;;6.87;3.83;;;22.70;58.70;;;;;;5032519;28;20406;-66
2023/10/10 08:11:41;;;;;;;5.57;4.97;;;22.70;58.70;;;;;;5032797;28;20403;-66
2023/10/10 08:14:08;;;;;;;6.57;3.97;;;22.70;58.70;;;;;;5032480;28;20195;-66
2023/10/10 08:16:35;;;;;;;6.23;4.40;;;22.70;58.70;;;;;;5032389;28;20198;-66
2023/10/10 08:19:04;;;;;;;7.10;4.80;;;22.70;58.70;;;;;;5032263;28;20545;-66
2023/10/10 08:21:48;;;;;;;5.57;4.63;;;22.70;59.20;;;;;;5032334;28;20414;-66
2023/10/10 08:24:15;;;;;;;6.80;4.40;;;22.70;58.70;;;;;;5032403;28;20441;-66
2023/10/10 08:26:41;;;;;;;7.30;4.67;;;22.70;58.70;;;;;;5032200;28;20945;-66
2023/10/10 08:29:11;;;;;;;5.80;4.63;;;22.70;58.70;;;;;;5032201;28;20418;-65
2023/10/10 08:31:39;;;;;;;5.83;4.87;;;22.70;58.70;;;;;;5032201;28;21178;-66
2023/10/10 08:34:08;;;;;;;5.27;4.40;;;22.70;58.70;;;;;;5032032;28;20431;-65
2023/10/10 08:36:35;;;;;;;7.70;5.37;;;22.70;58.70;;;;;;5032019;28;20949;-66
2023/10/10 08:41:43;;;;;;;7.53;4.43;;;22.70;58.60;;;;;;5032225;28;20727;-66
2023/10/10 08:44:10;;;;;;;4.70;4.10;;;22.70;58.60;;;;;;5031712;28;20427;-66
2023/10/10 08:46:41;;;;;;;7.57;4.50;;;22.70;58.60;;;;;;5031823;28;20411;-66
2023/10/10 08:49:08;;;;;;;7.03;5.00;;;22.70;58.60;;;;;;5032090;28;20395;-67
2023/10/10 08:51:34;;;;;;;8.03;4.90;;;22.70;59.20;;;;;;5031938;28;20419;-66
2023/10/10 08:54:11;;;;;;;5.53;4.70;;;22.70;58.60;;;;;;5031643;28;20429;-65
2023/10/10 08:56:53;;;;;;;6.40;5.40;;;22.70;58.60;;;;;;5031739;28;20813;-65
2023/10/10 08:59:18;;;;;;;6.10;4.63;;;22.70;58.60;;;;;;5031589;28;20822;-65
2023/10/10 09:01:45;;;;;;;7.73;5.13;;;22.70;58.60;;;;;;5031599;28;20407;-65
2023/10/10 09:04:18;;;;;;;5.63;5.00;;;22.70;58.60;;;;;;5031487;28;20194;-67
2023/10/10 09:06:58;;;;;;;6.90;4.60;;;22.70;58.60;;;;;;5013292;28;20425;-66
2023/10/10 09:09:40;;;;;;;7.60;4.90;;;22.70;58.60;;;;;;5031415;28;20429;-66
2023/10/10 09:12:14;;;;;;;8.60;5.00;;;22.70;58.60;;;;;;5031397;28;20390;-64
2023/10/10 09:14:50;;;;;;;5.57;5.00;;;22.70;58.60;;;;;;5031295;28;20912;-64
2023/10/10 09:17:29;;;;;;;8.50;5.00;;;22.70;58.60;;;;;;5031265;28;20481;-64
2023/10/10 09:19:58;;;;;;;5.57;4.47;;;22.70;58.60;;;;;;5031183;28;20456;-65
2023/10/10 09:22:34;;;;;;;7.50;4.80;;;22.70;58.60;;;;;;5031166;28;20759;-65
2023/10/10 09:25:18;;;;;;;5.03;4.30;;;22.70;58.60;;;;;;5031027;28;20422;-64
2023/10/10 09:28:05;;;;;;;5.83;4.80;;;22.70;58.60;;;;;;5031196;28;20382;-65
2023/10/10 09:30:32;;;;;;;5.93;4.40;;;22.70;58.60;;;;;;5031131;28;20899;-64
2023/10/10 09:33:12;;;;;;;5.27;4.70;;;22.70;58.60;;;;;;5030928;28;20421;-66
2023/10/10 09:35:39;;;;;;;4.93;4.30;;;22.70;58.60;;;;;;5030936;28;20449;-64
2023/10/10 09:38:12;;;;;;;6.20;4.80;;;22.70;58.60;;;;;;5031057;28;20493;-65
2023/10/10 09:40:40;;;;;;;8.57;4.63;;;22.70;58.60;;;;;;5031237;28;20403;-65
2023/10/10 09:43:12;;;;;;;6.53;5.03;;;22.70;58.60;;;;;;5030826;28;20779;-63
2023/10/10 09:46:10;;;;;;;5.60;4.57;;;22.70;58.60;;;;;;5013187;28;20434;-65
2023/10/10 09:51:30;;;;;;;6.70;4.70;;;22.70;58.70;;;;;;5030784;28;20465;-65
2023/10/10 09:54:15;;;;;;;5.87;4.43;;;22.70;58.60;;;;;;5030741;28;20480;-63
2023/10/10 09:56:46;;;;;;;6.00;4.70;;;22.70;58.70;;;;;;5030779;28;20477;-65
2023/10/10 09:59:14;;;;;;;7.33;4.50;;;22.70;58.70;;;;;;5030571;28;20487;-65
2023/10/10 10:01:45;;;;;;;9.47;4.87;;;22.70;58.70;;;;;;5030787;28;20849;-65
2023/10/10 10:04:18;;;;;;;5.83;5.10;;;22.70;58.70;;;;;;5030871;28;20422;-65
2023/10/10 10:07:23;;;;;;;6.43;4.37;;;22.70;58.70;;;;;;5030454;28;20883;-65
2023/10/10 10:10:12;;;;;;;5.67;4.57;;;22.80;58.70;;;;;;5016705;28;20457;-66
2023/10/10 10:12:59;;;;;;;7.30;5.03;;;22.80;58.70;;;;;;5030600;28;20398;-65
2023/10/10 10:15:49;;;;;;;5.77;4.53;;;22.70;58.70;;;;;;5030613;28;20402;-66
2023/10/10 10:18:44;;;;;;;7.60;5.13;;;22.80;58.70;;;;;;5030536;28;20390;-65
2023/10/10 10:23:45;;;;;;;5.60;5.00;;;22.70;58.70;;;;;;5033802;28;20430;-65
2023/10/10 10:26:21;;;;;;;8.80;6.20;;;22.80;58.70;;;;;;5034518;28;20390;-65
2023/10/10 10:28:56;;;;;;;5.00;4.50;;;22.80;58.70;;;;;;5034473;28;20537;-65
2023/10/10 10:31:30;;;;;;;6.40;4.47;;;22.70;58.70;;;;;;5034503;28;20905;-65
2023/10/10 10:34:05;;;;;;;5.57;4.30;;;22.70;58.70;;;;;;5034303;28;20525;-65
2023/10/10 10:36:42;;;;;;;5.30;4.70;;;22.80;58.70;;;;;;5034171;28;20464;-64
2023/10/10 10:39:19;;;;;;;8.10;5.13;;;22.80;58.70;;;;;;5034121;28;20457;-66
2023/10/10 10:41:51;;;;;;;5.20;4.50;;;22.80;58.80;;;;;;5034165;28;20444;-64
2023/10/10 10:44:44;;;;;;;8.50;5.47;;;22.80;58.70;;;;;;5034047;28;20426;-65
2023/10/10 10:47:39;;;;;;;5.07;4.50;;;22.80;58.70;;;;;;5034488;28;20774;-65
2023/10/10 10:50:17;;;;;;;5.30;4.07;;;22.80;58.70;;;;;;5022974;28;20437;-64
2023/10/10 10:52:48;;;;;;;5.17;4.67;;;22.70;58.70;;;;;;5034087;28;20390;-64
2023/10/10 10:55:40;;;;;;;5.07;4.20;;;22.80;58.70;;;;;;5033866;28;20946;-64
2023/10/10 10:58:20;;;;;;;8.17;4.43;;;22.80;58.70;;;;;;5033808;28;20403;-65
2023/10/10 11:03:33;;;;;;;6.70;4.83;;;22.70;58.70;;;;;;5034023;28;20433;-65
2023/10/10 11:06:09;;;;;;;6.30;4.90;;;22.80;58.70;;;;;;5033798;28;20436;-64
2023/10/10 11:08:52;;;;;;;7.00;4.60;;;22.80;58.70;;;;;;5033773;28;20425;-66
2023/10/10 11:14:09;;;;;;;7.77;5.33;;;22.80;58.70;;;;;;5033762;28;20429;-66
2023/10/10 11:16:38;;;;;;;4.83;4.30;;;22.80;58.70;;;;;;5033608;28;20929;-64
2023/10/10 11:19:38;;;;;;;7.30;5.47;;;22.80;58.70;;;;;;5033668;28;20515;-65
2023/10/10 11:22:01;;;;;;;7.93;5.87;;;22.80;58.70;;;;;;5033263;28;20434;-65
2023/10/10 11:24:31;;;;;;;11.90;7.13;;;22.80;58.70;;;;;;5033312;28;20422;-65
2023/10/10 11:27:13;;;;;;;10.77;6.80;;;22.80;58.80;;;;;;5033365;28;20409;-64
2023/10/10 11:29:44;;;;;;;18.70;9.90;;;22.80;58.70;;;;;;5032912;28;20386;-65
2023/10/10 11:32:12;;;;;;;17.67;9.47;;;22.80;58.80;;;;;;5033280;28;20410;-65
2023/10/10 11:34:44;;;;;;;16.50;11.10;;;22.80;58.70;;;;;;5032941;28;20525;-65
2023/10/10 11:37:20;;;;;;;21.37;12.07;;;22.80;58.70;;;;;;5033222;28;20401;-64
2023/10/10 11:39:47;;;;;;;27.07;11.77;;;22.80;58.80;;;;;;5033100;28;20441;-66
2023/10/10 11:42:33;;;;;;;21.57;11.40;;;22.80;58.70;;;;;;5033284;28;20412;-66
2023/10/10 11:45:03;;;;;;;28.50;12.70;;;22.80;58.70;;;;;;5032842;28;20860;-65
2023/10/10 11:47:42;;;;;;;26.10;12.27;;;22.80;58.70;;;;;;5033144;28;20418;-66
2023/10/10 11:50:11;;;;;;;19.80;11.20;;;22.80;58.70;;;;;;5032958;28;20402;-65
2023/10/10 11:52:55;;;;;;;22.57;11.67;;;22.80;58.80;;;;;;5032846;28;20415;-64
2023/10/10 11:55:22;;;;;;;25.03;12.33;;;22.80;58.80;;;;;;5032794;28;20430;-64
2023/10/10 11:57:51;;;;;;;23.63;12.07;;;22.80;58.80;;;;;;5032722;28;20419;-65
2023/10/10 12:00:29;;;;;;;19.70;12.70;;;22.80;58.80;;;;;;5032708;28;20520;-66
2023/10/10 12:02:57;;;;;;;22.27;11.57;;;22.80;58.80;;;;;;5032762;28;20839;-65
2023/10/10 12:08:05;;;;;;;23.87;11.10;;;22.80;58.80;;;;;;5032648;28;20391;-64
2023/10/10 12:15:51;;;;;;;18.60;10.93;;;22.80;58.80;;;;;;5032729;28;20477;-65
2023/10/10 12:18:17;;;;;;;15.50;9.80;;;22.80;58.80;;;;;;5032356;28;20822;-64
2023/10/10 12:20:44;;;;;;;18.90;11.20;;;22.80;58.80;;;;;;5032422;28;20394;-65
2023/10/10 12:23:13;;;;;;;15.20;10.40;;;22.80;58.80;;;;;;5032210;28;20648;-65
2023/10/10 12:25:41;;;;;;;16.13;9.77;;;22.80;58.80;;;;;;5032560;28;20403;-66
2023/10/10 12:28:12;;;;;;;15.70;9.70;;;22.80;58.80;;;;;;5032143;28;20449;-66
2023/10/10 12:30:42;;;;;;;16.87;10.23;;;22.80;58.80;;;;;;5032133;28;20390;-65
2023/10/10 12:33:08;;;;;;;18.57;9.50;;;22.80;58.80;;;;;;5032044;28;20456;-65
2023/10/10 12:35:35;;;;;;;16.90;9.10;;;22.80;58.80;;;;;;5032060;28;20476;-65
2023/10/10 12:38:01;;;;;;;14.90;8.80;;;22.80;58.80;;;;;;5031979;28;20411;-66
2023/10/10 12:40:33;;;;;;;13.87;9.37;;;22.80;58.80;;;;;;5031895;28;20974;-65
2023/10/10 12:43:00;;;;;;;19.77;9.70;;;22.80;58.80;;;;;;5031453;28;20453;-66
2023/10/10 12:45:26;;;;;;;14.37;8.60;;;22.80;58.80;;;;;;5032065;28;20407;-66
2023/10/10 12:47:53;;;;;;;14.23;8.27;;;22.80;58.80;;;;;;5031832;28;20417;-65
2023/10/10 12:50:26;;;;;;;15.40;9.20;;;22.80;58.80;;;;;;5031761;28;20402;-65
2023/10/10 12:53:03;;;;;;;19.53;8.97;;;22.80;58.80;;;;;;5031743;28;20423;-65
2023/10/10 12:55:29;;;;;;;13.93;7.97;;;22.80;58.80;;;;;;5031736;28;20394;-65
2023/10/10 12:57:54;;;;;;;13.73;8.20;;;22.80;58.80;;;;;;5031666;28;20498;-65
2023/10/10 13:00:23;;;;;;;12.83;7.00;;;22.80;58.80;;;;;;5031467;28;20204;-65
2023/10/10 13:02:50;;;;;;;13.90;7.50;;;22.80;58.80;;;;;;5031550;28;20168;-65
2023/10/10 13:05:16;;;;;;;13.43;8.17;;;22.80;58.80;;;;;;5031446;28;20434;-65
2023/10/10 13:07:43;;;;;;;13.30;7.97;;;22.80;58.80;;;;;;5031328;28;20411;-65
2023/10/10 13:10:10;;;;;;;11.47;7.10;;;22.80;58.80;;;;;;5031405;28;20472;-65
2023/10/10 13:12:45;;;;;;;10.83;6.97;;;22.80;58.80;;;;;;5031372;28;20410;-65
2023/10/10 13:15:18;;;;;;;12.17;7.97;;;22.80;58.80;;;;;;5031359;28;20965;-65
2023/10/10 13:17:53;;;;;;;10.90;6.77;;;22.80;58.80;;;;;;5031214;28;20399;-65
2023/10/10 13:20:21;;;;;;;14.70;6.63;;;22.80;58.80;;;;;;5031225;28;20445;-65
2023/10/10 13:22:53;;;;;;;10.13;6.37;;;22.80;58.80;;;;;;5031144;28;20990;-65
2023/10/10 13:25:22;;;;;;;10.97;7.30;;;22.80;58.80;;;;;;5031140;28;20469;-65
2023/10/10 13:27:52;;;;;;;8.47;6.20;;;22.80;58.80;;;;;;5031087;28;20476;-66
2023/10/10 13:30:18;;;;;;;8.40;6.57;;;22.80;58.80;;;;;;5031060;28;20426;-64
2023/10/10 13:32:44;;;;;;;9.07;5.90;;;22.80;58.80;;;;;;5030962;28;20410;-65
2023/10/10 13:35:10;;;;;;;8.27;6.10;;;22.80;58.70;;;;;;5030888;28;20854;-65
2023/10/10 13:37:41;;;;;;;14.87;6.80;;;22.80;58.80;;;;;;5031061;28;20160;-66
2023/10/10 13:40:07;;;;;;;6.87;5.07;;;22.80;58.70;;;;;;5030967;28;20865;-64
2023/10/10 13:42:33;;;;;;;7.83;5.70;;;22.80;58.70;;;;;;5013131;28;20411;-66
2023/10/10 13:45:10;;;;;;;9.17;5.60;;;22.80;58.70;;;;;;5030759;28;20431;-66
2023/10/10 13:47:39;;;;;;;7.87;5.33;;;22.80;58.70;;;;;;5031383;28;20183;-65
2023/10/10 13:52:50;;;;;;;9.30;5.50;;;22.80;58.70;;;;;;5030705;28;20471;-66
2023/10/10 13:55:18;;;;;;;6.63;5.30;;;22.80;58.80;;;;;;5030609;28;20430;-64
2023/10/10 13:57:44;;;;;;;6.50;5.30;;;22.80;58.70;;;;;;5031120;28;20501;-65
2023/10/10 14:03:05;;;;;;;8.47;5.23;;;22.80;58.70;;;;;;5013421;28;20184;-64
2023/10/10 14:05:36;;;;;;;7.50;5.30;;;22.80;58.80;;;;;;5012751;28;20779;-65
2023/10/10 14:08:03;;;;;;;7.43;5.03;;;22.80;58.70;;;;;;5030624;28;20410;-66
2023/10/10 14:10:41;;;;;;;7.30;4.70;;;22.80;58.70;;;;;;5030434;28;21195;-65
2023/10/10 14:13:19;;;;;;;6.77;4.70;;;22.80;58.70;;;;;;5027016;28;20550;-65
2023/10/10 14:15:54;;;;;;;8.40;5.10;;;22.80;58.70;;;;;;5011572;28;20788;-66
2023/10/10 14:18:28;;;;;;;7.40;5.40;;;22.80;58.70;;;;;;5011149;28;20449;-67
2023/10/10 14:20:54;;;;;;;7.23;5.30;;;22.80;58.70;;;;;;5011908;28;20462;-67
2023/10/10 14:23:25;;;;;;;7.20;5.00;;;22.80;58.70;;;;;;5014096;28;20416;-68
2023/10/10 14:25:51;;;;;;;5.63;4.60;;;22.80;58.70;;;;;;5014210;28;20494;-65
2023/10/10 14:28:18;;;;;;;6.87;5.00;;;22.80;58.70;;;;;;5010696;28;20415;-66
2023/10/10 14:30:50;;;;;;;7.17;4.87;;;22.80;58.70;;;;;;5010739;28;20418;-65
2023/10/10 14:33:17;;;;;;;8.63;4.33;;;22.80;58.70;;;;;;5010606;28;20781;-65
2023/10/10 14:35:44;;;;;;;4.80;4.07;;;22.80;58.70;;;;;;5010748;28;20860;-65
2023/10/10 14:38:14;;;;;;;8.80;5.47;;;22.80;58.70;;;;;;5010836;28;20447;-65
2023/10/10 14:40:41;;;;;;;5.40;4.37;;;22.70;58.60;;;;;;5010930;28;20824;-65
2023/10/10 14:43:07;;;;;;;7.60;5.40;;;22.80;58.70;;;;;;5010489;28;20411;-64
2023/10/10 14:45:33;;;;;;;4.47;3.63;;;22.80;58.70;;;;;;5010469;28;20424;-65
2023/10/10 14:48:04;;;;;;;7.10;5.00;;;22.80;58.70;;;;;;5010825;28;20452;-66
2023/10/10 14:50:36;;;;;;;6.73;4.47;;;22.80;58.70;;;;;;5010793;28;20422;-68
2023/10/10 14:53:08;;;;;;;8.33;4.37;;;22.80;58.70;;;;;;5010354;28;20387;-66
2023/10/10 14:55:40;;;;;;;6.13;4.33;;;22.80;58.70;;;;;;4994144;28;20395;-65
2023/10/10 14:58:09;;;;;;;4.90;4.40;;;22.80;58.70;;;;;;5011922;28;20392;-69
2023/10/10 15:00:40;;;;;;;6.27;4.70;;;22.80;58.70;;;;;;5011546;28;20461;-65
2023/10/10 15:03:13;;;;;;;5.07;3.70;;;22.80;58.70;;;;;;5010503;28;20391;-67
2023/10/10 15:05:49;;;;;;;5.90;3.90;;;22.70;58.60;;;;;;5012491;28;20479;-65
2023/10/10 15:08:19;;;;;;;5.97;4.00;;;22.80;58.70;;;;;;5013908;28;20410;-68
2023/10/10 15:10:46;;;;;;;5.73;4.30;;;22.80;58.70;;;;;;5014698;28;20412;-64
2023/10/10 15:13:15;;;;;;;6.20;4.50;;;22.70;58.60;;;;;;5013804;28;20494;-65
2023/10/10 15:15:45;;;;;;;7.40;4.27;;;22.70;58.60;;;;;;5013826;28;20516;-65
2023/10/10 15:18:15;;;;;;;5.40;4.40;;;22.70;58.60;;;;;;5013841;28;20396;-65
2023/10/10 15:20:45;;;;;;;5.77;4.20;;;22.70;58.60;;;;;;5013861;28;20794;-66
2023/10/10 15:23:15;;;;;;;5.87;4.07;;;22.70;58.50;;;;;;5014703;28;20421;-68
2023/10/10 15:25:41;;;;;;;6.90;4.63;;;22.70;58.50;;;;;;5013686;28;20419;-65
2023/10/10 15:28:07;;;;;;;5.40;4.07;;;22.70;58.50;;;;;;5013580;28;20446;-66
2023/10/10 15:30:36;;;;;;;7.30;4.60;;;22.70;58.50;;;;;;5013487;28;20407;-66
2023/10/10 15:33:05;;;;;;;6.77;4.20;;;22.70;58.50;;;;;;5013504;28;20767;-67
2023/10/10 15:35:32;;;;;;;5.20;3.73;;;22.70;58.50;;;;;;5013311;28;20447;-69
2023/10/10 15:37:57;;;;;;;4.97;3.63;;;22.70;58.50;;;;;;5013335;28;20785;-70
2023/10/10 15:40:23;;;;;;;4.60;3.80;;;22.70;58.50;;;;;;5013288;28;20465;-70
2023/10/10 15:42:52;;;;;;;6.40;4.37;;;22.70;58.50;;;;;;5013408;28;20256;-65
2023/10/10 15:45:21;;;;;;;7.00;4.50;;;22.70;58.50;;;;;;5013185;28;20188;-65